sensor_id;sensor_type;location;lat;lon;timestamp;P1;durP1;ratioP1;P2;durP2;ratioP2
14789;SDS011;7486;51.010;10.366;2023-04-25T00:01:00;6.87;;;4.80;;
14789;SDS011;7486;51.010;10.366;2023-04-25T00:03:45;5.83;;;4.90;;
14789;SDS011;7486;51.010;10.366;2023-04-25T00:06:31;7.57;;;4.80;;
14789;SDS011;7486;51.010;10.366;2023-04-25T00:09:18;6.40;;;5.03;;
14789;SDS011;7486;51.010;10.366;2023-04-25T00:12:04;7.77;;;5.17;;
14789;SDS011;7486;51.010;10.366;2023-04-25T00:14:50;7.83;;;4.80;;
14789;SDS011;7486;51.010;10.366;2023-04-25T00:17:35;6.00;;;4.73;;
14789;SDS011;7486;51.010;10.366;2023-04-25T00:20:20;7.60;;;5.10;;
14789;SDS011;7486;51.010;10.366;2023-04-25T00:23:06;5.97;;;4.90;;
14789;SDS011;7486;51.010;10.366;2023-04-25T00:25:51;9.30;;;4.93;;
14789;SDS011;7486;51.010;10.366;2023-04-25T00:28:37;6.20;;;4.97;;
14789;SDS011;7486;51.010;10.366;2023-04-25T00:31:22;8.13;;;5.17;;
14789;SDS011;7486;51.010;10.366;2023-04-25T00:34:08;8.13;;;5.77;;
14789;SDS011;7486;51.010;10.366;2023-04-25T00:36:53;8.30;;;5.07;;
14789;SDS011;7486;51.010;10.366;2023-04-25T00:39:39;5.60;;;5.00;;
14789;SDS011;7486;51.010;10.366;2023-04-25T00:42:24;6.33;;;5.20;;
14789;SDS011;7486;51.010;10.366;2023-04-25T00:45:10;10.40;;;5.20;;
14789;SDS011;7486;51.010;10.366;2023-04-25T00:47:58;6.53;;;5.13;;
14789;SDS011;7486;51.010;10.366;2023-04-25T00:50:55;7.60;;;4.97;;
14789;SDS011;7486;51.010;10.366;2023-04-25T00:53:44;5.57;;;4.70;;
14789;SDS011;7486;51.010;10.366;2023-04-25T00:56:30;5.53;;;4.50;;
14789;SDS011;7486;51.010;10.366;2023-04-25T00:59:15;4.87;;;4.30;;
14789;SDS011;7486;51.010;10.366;2023-04-25T01:02:03;5.57;;;4.60;;
14789;SDS011;7486;51.010;10.366;2023-04-25T01:04:49;6.37;;;4.60;;
14789;SDS011;7486;51.010;10.366;2023-04-25T01:07:35;5.63;;;4.47;;
14789;SDS011;7486;51.010;10.366;2023-04-25T01:10:21;5.50;;;4.47;;
14789;SDS011;7486;51.010;10.366;2023-04-25T01:13:06;7.10;;;4.80;;
14789;SDS011;7486;51.010;10.366;2023-04-25T01:15:52;6.10;;;4.20;;
14789;SDS011;7486;51.010;10.366;2023-04-25T01:18:40;4.63;;;4.23;;
14789;SDS011;7486;51.010;10.366;2023-04-25T01:21:27;6.00;;;4.37;;
14789;SDS011;7486;51.010;10.366;2023-04-25T01:24:13;5.67;;;4.17;;
14789;SDS011;7486;51.010;10.366;2023-04-25T01:26:59;6.20;;;4.40;;
14789;SDS011;7486;51.010;10.366;2023-04-25T01:29:45;6.57;;;4.00;;
14789;SDS011;7486;51.010;10.366;2023-04-25T01:32:31;5.57;;;4.30;;
14789;SDS011;7486;51.010;10.366;2023-04-25T01:35:18;4.83;;;4.07;;
14789;SDS011;7486;51.010;10.366;2023-04-25T01:38:04;5.20;;;4.37;;
14789;SDS011;7486;51.010;10.366;2023-04-25T01:40:50;4.67;;;4.27;;
14789;SDS011;7486;51.010;10.366;2023-04-25T01:43:37;4.97;;;4.23;;
14789;SDS011;7486;51.010;10.366;2023-04-25T01:46:22;6.83;;;4.23;;
14789;SDS011;7486;51.010;10.366;2023-04-25T01:49:08;4.73;;;4.00;;
14789;SDS011;7486;51.010;10.366;2023-04-25T01:51:53;8.00;;;4.47;;
14789;SDS011;7486;51.010;10.366;2023-04-25T01:54:40;7.23;;;4.50;;
14789;SDS011;7486;51.010;10.366;2023-04-25T01:57:25;5.73;;;4.43;;
14789;SDS011;7486;51.010;10.366;2023-04-25T02:00:11;5.07;;;4.57;;
14789;SDS011;7486;51.010;10.366;2023-04-25T02:02:58;8.50;;;5.40;;
14789;SDS011;7486;51.010;10.366;2023-04-25T02:05:48;6.00;;;4.90;;
14789;SDS011;7486;51.010;10.366;2023-04-25T02:08:33;6.27;;;5.20;;
14789;SDS011;7486;51.010;10.366;2023-04-25T02:11:19;8.47;;;5.40;;
14789;SDS011;7486;51.010;10.366;2023-04-25T02:14:13;10.63;;;5.43;;
14789;SDS011;7486;51.010;10.366;2023-04-25T02:17:20;6.93;;;5.07;;
14789;SDS011;7486;51.010;10.366;2023-04-25T02:20:05;8.13;;;5.07;;
14789;SDS011;7486;51.010;10.366;2023-04-25T02:22:51;7.20;;;5.60;;
14789;SDS011;7486;51.010;10.366;2023-04-25T02:25:38;7.17;;;5.40;;
14789;SDS011;7486;51.010;10.366;2023-04-25T02:28:24;6.83;;;4.90;;
14789;SDS011;7486;51.010;10.366;2023-04-25T02:31:09;5.70;;;4.67;;
14789;SDS011;7486;51.010;10.366;2023-04-25T02:33:55;5.70;;;5.07;;
14789;SDS011;7486;51.010;10.366;2023-04-25T02:36:40;7.70;;;4.97;;
14789;SDS011;7486;51.010;10.366;2023-04-25T02:39:26;5.87;;;5.20;;
14789;SDS011;7486;51.010;10.366;2023-04-25T02:42:13;6.10;;;5.10;;
14789;SDS011;7486;51.010;10.366;2023-04-25T02:44:58;6.37;;;4.67;;
14789;SDS011;7486;51.010;10.366;2023-04-25T02:47:44;7.57;;;5.00;;
14789;SDS011;7486;51.010;10.366;2023-04-25T02:50:29;7.80;;;5.03;;
14789;SDS011;7486;51.010;10.366;2023-04-25T02:53:15;5.53;;;4.70;;
14789;SDS011;7486;51.010;10.366;2023-04-25T02:56:05;6.17;;;4.90;;
14789;SDS011;7486;51.010;10.366;2023-04-25T02:58:50;7.30;;;4.93;;
14789;SDS011;7486;51.010;10.366;2023-04-25T03:01:35;7.13;;;4.63;;
14789;SDS011;7486;51.010;10.366;2023-04-25T03:04:21;6.20;;;4.90;;
14789;SDS011;7486;51.010;10.366;2023-04-25T03:07:06;5.57;;;4.80;;
14789;SDS011;7486;51.010;10.366;2023-04-25T03:09:51;7.70;;;4.50;;
14789;SDS011;7486;51.010;10.366;2023-04-25T03:12:36;6.37;;;4.70;;
14789;SDS011;7486;51.010;10.366;2023-04-25T03:15:22;5.43;;;4.20;;
14789;SDS011;7486;51.010;10.366;2023-04-25T03:18:07;4.77;;;4.27;;
14789;SDS011;7486;51.010;10.366;2023-04-25T03:20:52;5.37;;;4.13;;
14789;SDS011;7486;51.010;10.366;2023-04-25T03:23:37;5.30;;;4.33;;
14789;SDS011;7486;51.010;10.366;2023-04-25T03:26:23;6.77;;;4.50;;
14789;SDS011;7486;51.010;10.366;2023-04-25T03:29:08;6.00;;;4.53;;
14789;SDS011;7486;51.010;10.366;2023-04-25T03:31:55;5.93;;;4.40;;
14789;SDS011;7486;51.010;10.366;2023-04-25T03:34:40;5.73;;;4.77;;
14789;SDS011;7486;51.010;10.366;2023-04-25T03:37:25;5.43;;;4.20;;
14789;SDS011;7486;51.010;10.366;2023-04-25T03:40:11;4.97;;;4.10;;
14789;SDS011;7486;51.010;10.366;2023-04-25T03:43:23;4.67;;;4.17;;
14789;SDS011;7486;51.010;10.366;2023-04-25T03:46:14;7.03;;;4.57;;
14789;SDS011;7486;51.010;10.366;2023-04-25T03:49:01;7.43;;;4.63;;
14789;SDS011;7486;51.010;10.366;2023-04-25T03:52:03;6.37;;;5.00;;
14789;SDS011;7486;51.010;10.366;2023-04-25T03:54:55;6.53;;;4.80;;
14789;SDS011;7486;51.010;10.366;2023-04-25T03:57:42;6.40;;;4.80;;
14789;SDS011;7486;51.010;10.366;2023-04-25T04:00:28;5.40;;;4.80;;
14789;SDS011;7486;51.010;10.366;2023-04-25T04:03:13;5.93;;;4.37;;
14789;SDS011;7486;51.010;10.366;2023-04-25T04:05:59;6.10;;;4.43;;
14789;SDS011;7486;51.010;10.366;2023-04-25T04:08:45;5.70;;;4.80;;
14789;SDS011;7486;51.010;10.366;2023-04-25T04:11:30;6.47;;;4.57;;
14789;SDS011;7486;51.010;10.366;2023-04-25T04:14:15;5.77;;;4.73;;
14789;SDS011;7486;51.010;10.366;2023-04-25T04:17:03;6.90;;;5.03;;
14789;SDS011;7486;51.010;10.366;2023-04-25T04:19:49;5.23;;;4.63;;
14789;SDS011;7486;51.010;10.366;2023-04-25T04:22:37;5.80;;;4.57;;
14789;SDS011;7486;51.010;10.366;2023-04-25T04:25:27;5.03;;;4.20;;
14789;SDS011;7486;51.010;10.366;2023-04-25T04:28:38;6.97;;;4.50;;
14789;SDS011;7486;51.010;10.366;2023-04-25T04:31:51;5.10;;;4.40;;
14789;SDS011;7486;51.010;10.366;2023-04-25T04:34:36;5.60;;;4.47;;
14789;SDS011;7486;51.010;10.366;2023-04-25T04:37:22;6.07;;;4.77;;
14789;SDS011;7486;51.010;10.366;2023-04-25T04:40:08;7.67;;;4.97;;
14789;SDS011;7486;51.010;10.366;2023-04-25T04:43:04;7.20;;;5.13;;
14789;SDS011;7486;51.010;10.366;2023-04-25T04:46:12;6.30;;;4.90;;
14789;SDS011;7486;51.010;10.366;2023-04-25T04:49:18;5.80;;;4.60;;
14789;SDS011;7486;51.010;10.366;2023-04-25T04:52:13;7.27;;;5.40;;
14789;SDS011;7486;51.010;10.366;2023-04-25T04:55:18;7.43;;;5.13;;
14789;SDS011;7486;51.010;10.366;2023-04-25T04:58:30;5.90;;;5.00;;
14789;SDS011;7486;51.010;10.366;2023-04-25T05:01:41;6.60;;;5.17;;
14789;SDS011;7486;51.010;10.366;2023-04-25T05:04:41;8.80;;;5.50;;
14789;SDS011;7486;51.010;10.366;2023-04-25T05:07:42;7.47;;;5.40;;
14789;SDS011;7486;51.010;10.366;2023-04-25T05:10:41;6.50;;;5.43;;
14789;SDS011;7486;51.010;10.366;2023-04-25T05:13:40;7.73;;;5.07;;
14789;SDS011;7486;51.010;10.366;2023-04-25T05:16:43;7.73;;;5.37;;
14789;SDS011;7486;51.010;10.366;2023-04-25T05:19:52;8.40;;;5.10;;
14789;SDS011;7486;51.010;10.366;2023-04-25T05:22:57;8.03;;;5.30;;
14789;SDS011;7486;51.010;10.366;2023-04-25T05:26:18;7.87;;;5.00;;
14789;SDS011;7486;51.010;10.366;2023-04-25T05:29:11;9.40;;;5.83;;
14789;SDS011;7486;51.010;10.366;2023-04-25T05:32:12;8.27;;;4.83;;
14789;SDS011;7486;51.010;10.366;2023-04-25T05:34:57;7.73;;;4.97;;
14789;SDS011;7486;51.010;10.366;2023-04-25T05:37:46;9.07;;;5.17;;
14789;SDS011;7486;51.010;10.366;2023-04-25T05:40:32;5.63;;;4.90;;
14789;SDS011;7486;51.010;10.366;2023-04-25T05:43:33;4.90;;;4.27;;
14789;SDS011;7486;51.010;10.366;2023-04-25T05:46:32;6.93;;;4.50;;
14789;SDS011;7486;51.010;10.366;2023-04-25T05:49:37;6.77;;;4.53;;
14789;SDS011;7486;51.010;10.366;2023-04-25T05:52:50;8.93;;;4.60;;
14789;SDS011;7486;51.010;10.366;2023-04-25T05:55:46;6.10;;;4.67;;
14789;SDS011;7486;51.010;10.366;2023-04-25T05:58:44;5.90;;;4.13;;
14789;SDS011;7486;51.010;10.366;2023-04-25T06:01:30;6.20;;;3.73;;
14789;SDS011;7486;51.010;10.366;2023-04-25T06:04:15;6.17;;;3.83;;
14789;SDS011;7486;51.010;10.366;2023-04-25T06:07:01;7.43;;;4.17;;
14789;SDS011;7486;51.010;10.366;2023-04-25T06:09:46;7.93;;;4.20;;
14789;SDS011;7486;51.010;10.366;2023-04-25T06:12:32;6.60;;;4.30;;
14789;SDS011;7486;51.010;10.366;2023-04-25T06:15:18;7.70;;;4.40;;
14789;SDS011;7486;51.010;10.366;2023-04-25T06:18:07;6.03;;;3.80;;
14789;SDS011;7486;51.010;10.366;2023-04-25T06:20:52;7.63;;;4.20;;
14789;SDS011;7486;51.010;10.366;2023-04-25T06:23:40;6.27;;;3.87;;
14789;SDS011;7486;51.010;10.366;2023-04-25T06:26:29;7.30;;;4.33;;
14789;SDS011;7486;51.010;10.366;2023-04-25T06:29:14;6.43;;;4.20;;
14789;SDS011;7486;51.010;10.366;2023-04-25T06:32:00;5.90;;;4.20;;
14789;SDS011;7486;51.010;10.366;2023-04-25T06:34:47;7.23;;;4.23;;
14789;SDS011;7486;51.010;10.366;2023-04-25T06:37:32;6.63;;;4.63;;
14789;SDS011;7486;51.010;10.366;2023-04-25T06:40:17;7.10;;;4.40;;
14789;SDS011;7486;51.010;10.366;2023-04-25T06:43:02;4.50;;;3.87;;
14789;SDS011;7486;51.010;10.366;2023-04-25T06:46:20;6.07;;;4.17;;
14789;SDS011;7486;51.010;10.366;2023-04-25T06:49:06;5.90;;;4.20;;
14789;SDS011;7486;51.010;10.366;2023-04-25T06:51:52;7.20;;;4.40;;
14789;SDS011;7486;51.010;10.366;2023-04-25T06:54:37;7.53;;;4.50;;
14789;SDS011;7486;51.010;10.366;2023-04-25T06:57:36;6.63;;;4.43;;
14789;SDS011;7486;51.010;10.366;2023-04-25T07:00:47;5.47;;;4.20;;
14789;SDS011;7486;51.010;10.366;2023-04-25T07:03:33;7.27;;;4.90;;
14789;SDS011;7486;51.010;10.366;2023-04-25T07:06:24;6.80;;;4.27;;
14789;SDS011;7486;51.010;10.366;2023-04-25T07:09:10;7.00;;;4.37;;
14789;SDS011;7486;51.010;10.366;2023-04-25T07:11:56;6.53;;;4.40;;
14789;SDS011;7486;51.010;10.366;2023-04-25T07:14:41;5.00;;;4.40;;
14789;SDS011;7486;51.010;10.366;2023-04-25T07:17:28;5.70;;;4.23;;
14789;SDS011;7486;51.010;10.366;2023-04-25T07:20:14;7.50;;;4.80;;
14789;SDS011;7486;51.010;10.366;2023-04-25T07:23:01;4.63;;;4.07;;
14789;SDS011;7486;51.010;10.366;2023-04-25T07:25:47;6.03;;;3.73;;
14789;SDS011;7486;51.010;10.366;2023-04-25T07:28:37;5.83;;;4.00;;
14789;SDS011;7486;51.010;10.366;2023-04-25T07:31:22;5.70;;;3.87;;
14789;SDS011;7486;51.010;10.366;2023-04-25T07:34:09;5.77;;;4.20;;
14789;SDS011;7486;51.010;10.366;2023-04-25T07:36:56;4.10;;;3.57;;
14789;SDS011;7486;51.010;10.366;2023-04-25T07:39:44;5.53;;;4.07;;
14789;SDS011;7486;51.010;10.366;2023-04-25T07:42:30;5.07;;;3.90;;
14789;SDS011;7486;51.010;10.366;2023-04-25T07:45:16;4.67;;;3.43;;
14789;SDS011;7486;51.010;10.366;2023-04-25T07:48:01;4.10;;;3.40;;
14789;SDS011;7486;51.010;10.366;2023-04-25T07:50:49;3.80;;;3.50;;
14789;SDS011;7486;51.010;10.366;2023-04-25T07:53:35;6.13;;;4.50;;
14789;SDS011;7486;51.010;10.366;2023-04-25T07:56:24;5.53;;;4.40;;
14789;SDS011;7486;51.010;10.366;2023-04-25T07:59:11;5.80;;;4.27;;
14789;SDS011;7486;51.010;10.366;2023-04-25T08:01:57;5.33;;;4.50;;
14789;SDS011;7486;51.010;10.366;2023-04-25T08:04:43;7.00;;;4.63;;
14789;SDS011;7486;51.010;10.366;2023-04-25T08:07:30;4.67;;;3.80;;
14789;SDS011;7486;51.010;10.366;2023-04-25T08:10:20;4.77;;;3.70;;
14789;SDS011;7486;51.010;10.366;2023-04-25T08:13:05;4.97;;;4.00;;
14789;SDS011;7486;51.010;10.366;2023-04-25T08:15:51;5.10;;;3.97;;
14789;SDS011;7486;51.010;10.366;2023-04-25T08:18:37;6.27;;;3.93;;
14789;SDS011;7486;51.010;10.366;2023-04-25T08:21:22;4.90;;;3.73;;
14789;SDS011;7486;51.010;10.366;2023-04-25T08:24:08;3.73;;;3.30;;
14789;SDS011;7486;51.010;10.366;2023-04-25T08:26:56;4.70;;;3.23;;
14789;SDS011;7486;51.010;10.366;2023-04-25T08:29:43;5.23;;;2.97;;
14789;SDS011;7486;51.010;10.366;2023-04-25T08:32:28;4.47;;;2.40;;
14789;SDS011;7486;51.010;10.366;2023-04-25T08:35:33;3.23;;;2.33;;
14789;SDS011;7486;51.010;10.366;2023-04-25T08:38:19;4.93;;;3.23;;
14789;SDS011;7486;51.010;10.366;2023-04-25T08:41:04;8.03;;;2.40;;
14789;SDS011;7486;51.010;10.366;2023-04-25T08:43:51;3.07;;;2.30;;
14789;SDS011;7486;51.010;10.366;2023-04-25T08:46:40;5.83;;;2.20;;
14789;SDS011;7486;51.010;10.366;2023-04-25T08:49:34;3.77;;;2.17;;
14789;SDS011;7486;51.010;10.366;2023-04-25T08:52:21;3.83;;;2.03;;
14789;SDS011;7486;51.010;10.366;2023-04-25T08:55:10;5.10;;;2.10;;
14789;SDS011;7486;51.010;10.366;2023-04-25T08:57:57;2.90;;;2.00;;
14789;SDS011;7486;51.010;10.366;2023-04-25T09:00:45;4.23;;;2.10;;
14789;SDS011;7486;51.010;10.366;2023-04-25T09:03:31;3.03;;;2.00;;
14789;SDS011;7486;51.010;10.366;2023-04-25T09:06:17;4.03;;;2.10;;
14789;SDS011;7486;51.010;10.366;2023-04-25T09:09:06;3.73;;;2.10;;
14789;SDS011;7486;51.010;10.366;2023-04-25T09:11:54;5.97;;;2.20;;
14789;SDS011;7486;51.010;10.366;2023-04-25T09:14:41;4.40;;;2.10;;
14789;SDS011;7486;51.010;10.366;2023-04-25T09:17:36;4.60;;;1.97;;
14789;SDS011;7486;51.010;10.366;2023-04-25T09:20:21;4.00;;;2.20;;
14789;SDS011;7486;51.010;10.366;2023-04-25T09:23:07;4.83;;;2.23;;
14789;SDS011;7486;51.010;10.366;2023-04-25T09:25:55;5.20;;;2.20;;
14789;SDS011;7486;51.010;10.366;2023-04-25T09:28:40;5.90;;;2.53;;
14789;SDS011;7486;51.010;10.366;2023-04-25T09:31:26;4.17;;;2.07;;
14789;SDS011;7486;51.010;10.366;2023-04-25T09:34:15;6.47;;;2.90;;
14789;SDS011;7486;51.010;10.366;2023-04-25T09:37:10;3.73;;;2.20;;
14789;SDS011;7486;51.010;10.366;2023-04-25T09:40:15;4.73;;;2.33;;
14789;SDS011;7486;51.010;10.366;2023-04-25T09:46:10;5.03;;;2.40;;
14789;SDS011;7486;51.010;10.366;2023-04-25T09:49:05;4.10;;;1.93;;
14789;SDS011;7486;51.010;10.366;2023-04-25T09:51:59;5.33;;;2.30;;
14789;SDS011;7486;51.010;10.366;2023-04-25T09:54:50;6.27;;;2.43;;
14789;SDS011;7486;51.010;10.366;2023-04-25T09:57:43;5.90;;;1.83;;
14789;SDS011;7486;51.010;10.366;2023-04-25T10:00:34;6.10;;;2.50;;
14789;SDS011;7486;51.010;10.366;2023-04-25T10:03:32;3.67;;;2.22;;
14789;SDS011;7486;51.010;10.366;2023-04-25T10:06:35;4.38;;;2.20;;
14789;SDS011;7486;51.010;10.366;2023-04-25T10:09:24;3.72;;;2.05;;
14789;SDS011;7486;51.010;10.366;2023-04-25T10:12:11;5.70;;;2.33;;
14789;SDS011;7486;51.010;10.366;2023-04-25T10:14:57;3.92;;;2.17;;
14789;SDS011;7486;51.010;10.366;2023-04-25T10:17:43;5.47;;;2.20;;
14789;SDS011;7486;51.010;10.366;2023-04-25T10:20:29;4.50;;;2.15;;
14789;SDS011;7486;51.010;10.366;2023-04-25T10:23:15;6.53;;;2.10;;
14789;SDS011;7486;51.010;10.366;2023-04-25T10:26:01;4.95;;;2.00;;
14789;SDS011;7486;51.010;10.366;2023-04-25T10:28:57;4.43;;;2.05;;
14789;SDS011;7486;51.010;10.366;2023-04-25T10:31:46;4.20;;;1.83;;
14789;SDS011;7486;51.010;10.366;2023-04-25T10:34:38;5.40;;;2.08;;
14789;SDS011;7486;51.010;10.366;2023-04-25T10:37:25;6.00;;;2.50;;
14789;SDS011;7486;51.010;10.366;2023-04-25T10:40:10;4.50;;;1.98;;
14789;SDS011;7486;51.010;10.366;2023-04-25T10:42:56;3.38;;;1.85;;
14789;SDS011;7486;51.010;10.366;2023-04-25T10:52:24;7.05;;;2.13;;
14789;SDS011;7486;51.010;10.366;2023-04-25T10:55:13;6.30;;;2.00;;
14789;SDS011;7486;51.010;10.366;2023-04-25T10:57:58;5.47;;;2.15;;
14789;SDS011;7486;51.010;10.366;2023-04-25T11:00:45;6.82;;;2.05;;
14789;SDS011;7486;51.010;10.366;2023-04-25T11:03:42;4.63;;;2.17;;
14789;SDS011;7486;51.010;10.366;2023-04-25T11:06:29;4.93;;;1.98;;
14789;SDS011;7486;51.010;10.366;2023-04-25T11:09:30;3.17;;;1.70;;
14789;SDS011;7486;51.010;10.366;2023-04-25T11:12:15;4.45;;;1.85;;
14789;SDS011;7486;51.010;10.366;2023-04-25T11:15:05;4.57;;;1.90;;
14789;SDS011;7486;51.010;10.366;2023-04-25T11:17:52;5.80;;;2.20;;
14789;SDS011;7486;51.010;10.366;2023-04-25T11:20:38;7.03;;;2.10;;
14789;SDS011;7486;51.010;10.366;2023-04-25T11:23:25;5.78;;;2.15;;
14789;SDS011;7486;51.010;10.366;2023-04-25T11:26:12;5.63;;;1.90;;
14789;SDS011;7486;51.010;10.366;2023-04-25T11:28:58;4.95;;;2.00;;
14789;SDS011;7486;51.010;10.366;2023-04-25T11:31:47;5.32;;;2.13;;
14789;SDS011;7486;51.010;10.366;2023-04-25T11:34:33;3.88;;;2.13;;
14789;SDS011;7486;51.010;10.366;2023-04-25T11:37:19;7.23;;;2.00;;
14789;SDS011;7486;51.010;10.366;2023-04-25T11:40:04;5.03;;;1.80;;
14789;SDS011;7486;51.010;10.366;2023-04-25T11:42:51;7.00;;;1.80;;
14789;SDS011;7486;51.010;10.366;2023-04-25T11:45:39;3.40;;;1.83;;
14789;SDS011;7486;51.010;10.366;2023-04-25T11:48:24;3.83;;;1.70;;
14789;SDS011;7486;51.010;10.366;2023-04-25T11:51:11;7.20;;;1.80;;
14789;SDS011;7486;51.010;10.366;2023-04-25T11:53:56;3.40;;;1.70;;
14789;SDS011;7486;51.010;10.366;2023-04-25T11:56:45;5.47;;;2.03;;
14789;SDS011;7486;51.010;10.366;2023-04-25T11:59:30;4.83;;;1.50;;
14789;SDS011;7486;51.010;10.366;2023-04-25T12:02:25;3.17;;;1.90;;
14789;SDS011;7486;51.010;10.366;2023-04-25T12:05:12;5.30;;;2.22;;
14789;SDS011;7486;51.010;10.366;2023-04-25T12:08:16;5.60;;;2.00;;
14789;SDS011;7486;51.010;10.366;2023-04-25T12:11:01;5.63;;;1.90;;
14789;SDS011;7486;51.010;10.366;2023-04-25T12:13:51;3.57;;;1.83;;
14789;SDS011;7486;51.010;10.366;2023-04-25T12:16:45;4.50;;;2.05;;
14789;SDS011;7486;51.010;10.366;2023-04-25T12:19:33;3.03;;;1.75;;
14789;SDS011;7486;51.010;10.366;2023-04-25T12:22:21;4.53;;;1.93;;
14789;SDS011;7486;51.010;10.366;2023-04-25T12:25:10;4.43;;;1.83;;
14789;SDS011;7486;51.010;10.366;2023-04-25T12:28:08;5.85;;;1.90;;
14789;SDS011;7486;51.010;10.366;2023-04-25T12:31:03;4.70;;;1.73;;
14789;SDS011;7486;51.010;10.366;2023-04-25T12:33:50;4.60;;;1.65;;
14789;SDS011;7486;51.010;10.366;2023-04-25T12:36:36;5.70;;;2.08;;
14789;SDS011;7486;51.010;10.366;2023-04-25T12:39:23;4.57;;;1.97;;
14789;SDS011;7486;51.010;10.366;2023-04-25T12:42:09;4.30;;;1.60;;
14789;SDS011;7486;51.010;10.366;2023-04-25T12:44:55;5.03;;;1.70;;
14789;SDS011;7486;51.010;10.366;2023-04-25T12:47:40;4.78;;;1.80;;
14789;SDS011;7486;51.010;10.366;2023-04-25T12:50:25;7.22;;;1.80;;
14789;SDS011;7486;51.010;10.366;2023-04-25T12:53:11;6.57;;;2.13;;
14789;SDS011;7486;51.010;10.366;2023-04-25T12:55:58;4.07;;;1.83;;
14789;SDS011;7486;51.010;10.366;2023-04-25T12:58:43;4.35;;;1.70;;
14789;SDS011;7486;51.010;10.366;2023-04-25T13:01:30;3.63;;;1.55;;
14789;SDS011;7486;51.010;10.366;2023-04-25T13:04:17;4.93;;;1.63;;
14789;SDS011;7486;51.010;10.366;2023-04-25T13:07:03;5.57;;;1.80;;
14789;SDS011;7486;51.010;10.366;2023-04-25T13:09:48;6.20;;;1.67;;
14789;SDS011;7486;51.010;10.366;2023-04-25T13:12:35;3.40;;;1.65;;
14789;SDS011;7486;51.010;10.366;2023-04-25T13:15:20;5.35;;;1.50;;
14789;SDS011;7486;51.010;10.366;2023-04-25T13:18:06;3.80;;;1.58;;
14789;SDS011;7486;51.010;10.366;2023-04-25T13:20:52;3.88;;;1.70;;
14789;SDS011;7486;51.010;10.366;2023-04-25T13:23:38;3.63;;;1.70;;
14789;SDS011;7486;51.010;10.366;2023-04-25T13:26:23;4.97;;;1.63;;
14789;SDS011;7486;51.010;10.366;2023-04-25T13:29:09;4.25;;;1.80;;
14789;SDS011;7486;51.010;10.366;2023-04-25T13:31:54;5.07;;;1.48;;
14789;SDS011;7486;51.010;10.366;2023-04-25T13:34:40;3.88;;;1.60;;
14789;SDS011;7486;51.010;10.366;2023-04-25T13:37:26;5.88;;;1.75;;
14789;SDS011;7486;51.010;10.366;2023-04-25T13:40:11;5.93;;;1.63;;
14789;SDS011;7486;51.010;10.366;2023-04-25T13:42:56;4.32;;;1.65;;
14789;SDS011;7486;51.010;10.366;2023-04-25T13:45:42;3.65;;;1.58;;
14789;SDS011;7486;51.010;10.366;2023-04-25T13:48:28;3.35;;;1.70;;
14789;SDS011;7486;51.010;10.366;2023-04-25T13:51:13;3.75;;;1.77;;
14789;SDS011;7486;51.010;10.366;2023-04-25T13:53:58;2.28;;;1.60;;
14789;SDS011;7486;51.010;10.366;2023-04-25T13:56:44;3.63;;;1.50;;
14789;SDS011;7486;51.010;10.366;2023-04-25T13:59:29;2.45;;;1.30;;
14789;SDS011;7486;51.010;10.366;2023-04-25T14:02:14;3.30;;;1.60;;
14789;SDS011;7486;51.010;10.366;2023-04-25T14:05:00;6.38;;;1.60;;
14789;SDS011;7486;51.010;10.366;2023-04-25T14:07:45;3.47;;;1.50;;
14789;SDS011;7486;51.010;10.366;2023-04-25T14:10:31;2.78;;;1.40;;
14789;SDS011;7486;51.010;10.366;2023-04-25T14:13:16;2.63;;;1.35;;
14789;SDS011;7486;51.010;10.366;2023-04-25T14:16:02;3.72;;;1.77;;
14789;SDS011;7486;51.010;10.366;2023-04-25T14:18:47;4.53;;;1.40;;
14789;SDS011;7486;51.010;10.366;2023-04-25T14:21:33;4.22;;;1.60;;
14789;SDS011;7486;51.010;10.366;2023-04-25T14:24:18;5.15;;;1.60;;
14789;SDS011;7486;51.010;10.366;2023-04-25T14:27:03;2.15;;;1.33;;
14789;SDS011;7486;51.010;10.366;2023-04-25T14:29:48;9.00;;;6.32;;
14789;SDS011;7486;51.010;10.366;2023-04-25T14:32:34;11.05;;;6.78;;
14789;SDS011;7486;51.010;10.366;2023-04-25T14:35:19;7.75;;;2.65;;
14789;SDS011;7486;51.010;10.366;2023-04-25T14:38:05;5.63;;;1.80;;
14789;SDS011;7486;51.010;10.366;2023-04-25T14:40:50;4.53;;;1.73;;
14789;SDS011;7486;51.010;10.366;2023-04-25T14:43:36;4.83;;;1.70;;
14789;SDS011;7486;51.010;10.366;2023-04-25T14:46:21;3.53;;;1.70;;
14789;SDS011;7486;51.010;10.366;2023-04-25T14:49:06;3.03;;;1.40;;
14789;SDS011;7486;51.010;10.366;2023-04-25T14:51:52;5.15;;;2.05;;
14789;SDS011;7486;51.010;10.366;2023-04-25T14:54:38;6.20;;;2.30;;
14789;SDS011;7486;51.010;10.366;2023-04-25T14:57:23;4.25;;;1.80;;
14789;SDS011;7486;51.010;10.366;2023-04-25T15:00:08;3.38;;;1.70;;
14789;SDS011;7486;51.010;10.366;2023-04-25T15:02:54;3.97;;;1.70;;
14789;SDS011;7486;51.010;10.366;2023-04-25T15:05:40;4.45;;;1.50;;
14789;SDS011;7486;51.010;10.366;2023-04-25T15:08:31;4.85;;;1.70;;
14789;SDS011;7486;51.010;10.366;2023-04-25T15:11:17;5.28;;;1.42;;
14789;SDS011;7486;51.010;10.366;2023-04-25T15:14:04;6.20;;;1.90;;
14789;SDS011;7486;51.010;10.366;2023-04-25T15:16:49;3.85;;;1.60;;
14789;SDS011;7486;51.010;10.366;2023-04-25T15:19:35;6.25;;;2.00;;
14789;SDS011;7486;51.010;10.366;2023-04-25T15:22:20;5.03;;;1.80;;
14789;SDS011;7486;51.010;10.366;2023-04-25T15:25:06;3.75;;;1.70;;
14789;SDS011;7486;51.010;10.366;2023-04-25T15:27:52;3.75;;;1.80;;
14789;SDS011;7486;51.010;10.366;2023-04-25T15:30:37;3.97;;;1.70;;
14789;SDS011;7486;51.010;10.366;2023-04-25T15:33:23;3.60;;;1.50;;
14789;SDS011;7486;51.010;10.366;2023-04-25T15:36:09;2.85;;;1.40;;
14789;SDS011;7486;51.010;10.366;2023-04-25T15:38:54;3.88;;;1.80;;
14789;SDS011;7486;51.010;10.366;2023-04-25T15:41:40;2.67;;;1.40;;
14789;SDS011;7486;51.010;10.366;2023-04-25T15:44:25;4.82;;;1.75;;
14789;SDS011;7486;51.010;10.366;2023-04-25T15:47:11;3.10;;;1.60;;
14789;SDS011;7486;51.010;10.366;2023-04-25T15:49:57;4.22;;;1.90;;
14789;SDS011;7486;51.010;10.366;2023-04-25T15:52:42;2.72;;;1.45;;
14789;SDS011;7486;51.010;10.366;2023-04-25T15:55:27;4.13;;;1.60;;
14789;SDS011;7486;51.010;10.366;2023-04-25T15:58:12;3.08;;;1.58;;
14789;SDS011;7486;51.010;10.366;2023-04-25T16:00:58;2.63;;;1.30;;
14789;SDS011;7486;51.010;10.366;2023-04-25T16:03:43;5.47;;;1.83;;
14789;SDS011;7486;51.010;10.366;2023-04-25T16:06:28;2.22;;;1.40;;
14789;SDS011;7486;51.010;10.366;2023-04-25T16:09:13;3.28;;;1.52;;
14789;SDS011;7486;51.010;10.366;2023-04-25T16:11:59;3.75;;;1.80;;
14789;SDS011;7486;51.010;10.366;2023-04-25T16:14:44;3.53;;;1.50;;
14789;SDS011;7486;51.010;10.366;2023-04-25T16:17:30;4.32;;;1.50;;
14789;SDS011;7486;51.010;10.366;2023-04-25T16:20:16;3.67;;;1.42;;
14789;SDS011;7486;51.010;10.366;2023-04-25T16:23:01;3.70;;;1.38;;
14789;SDS011;7486;51.010;10.366;2023-04-25T16:25:47;3.17;;;1.63;;
14789;SDS011;7486;51.010;10.366;2023-04-25T16:28:33;3.15;;;1.50;;
14789;SDS011;7486;51.010;10.366;2023-04-25T16:31:18;2.72;;;1.30;;
14789;SDS011;7486;51.010;10.366;2023-04-25T16:34:04;2.13;;;1.38;;
14789;SDS011;7486;51.010;10.366;2023-04-25T16:36:50;4.05;;;1.40;;
14789;SDS011;7486;51.010;10.366;2023-04-25T16:39:35;5.47;;;1.90;;
14789;SDS011;7486;51.010;10.366;2023-04-25T16:42:20;3.25;;;1.50;;
14789;SDS011;7486;51.010;10.366;2023-04-25T16:45:06;3.10;;;1.63;;
14789;SDS011;7486;51.010;10.366;2023-04-25T16:47:52;4.15;;;1.90;;
14789;SDS011;7486;51.010;10.366;2023-04-25T16:50:37;4.82;;;2.50;;
14789;SDS011;7486;51.010;10.366;2023-04-25T16:53:22;2.92;;;1.95;;
14789;SDS011;7486;51.010;10.366;2023-04-25T16:56:08;3.20;;;1.83;;
14789;SDS011;7486;51.010;10.366;2023-04-25T16:58:53;2.20;;;1.58;;
14789;SDS011;7486;51.010;10.366;2023-04-25T17:01:38;4.73;;;1.83;;
14789;SDS011;7486;51.010;10.366;2023-04-25T17:04:23;2.58;;;1.60;;